createdAt,value
2022-10-12T00:00:39.825Z,3.91
2022-10-12T00:03:06.351Z,3.58
2022-10-12T00:05:32.820Z,3.55
2022-10-12T00:07:59.459Z,3.51
2022-10-12T00:10:25.973Z,3.57
2022-10-12T00:12:52.443Z,3.75
2022-10-12T00:15:19.003Z,4.01
2022-10-12T00:17:45.453Z,3.82
2022-10-12T00:20:12.292Z,3.67
2022-10-12T00:22:38.729Z,3.49
2022-10-12T00:25:05.677Z,3.40
2022-10-12T00:27:32.230Z,3.43
2022-10-12T00:29:58.720Z,3.35
2022-10-12T00:32:25.241Z,3.37
2022-10-12T00:34:51.789Z,3.17
2022-10-12T00:37:18.246Z,3.23
2022-10-12T00:39:44.823Z,3.40
2022-10-12T00:42:12.038Z,3.19
2022-10-12T00:44:44.889Z,3.33
2022-10-12T00:47:37.335Z,3.46
2022-10-12T00:50:18.318Z,3.28
2022-10-12T00:53:14.176Z,3.15
2022-10-12T00:55:47.555Z,3.42
2022-10-12T00:58:14.357Z,3.52
2022-10-12T01:00:41.967Z,3.67
2022-10-12T01:03:12.785Z,3.33
2022-10-12T01:05:40.433Z,3.16
2022-10-12T01:08:07.050Z,3.17
2022-10-12T01:10:33.565Z,3.20
2022-10-12T01:13:00.685Z,3.09
2022-10-12T01:15:34.377Z,3.01
2022-10-12T01:18:14.574Z,2.92
2022-10-12T01:20:49.772Z,2.90
2022-10-12T01:23:28.039Z,2.92
2022-10-12T01:26:17.056Z,3.02
2022-10-12T01:29:02.608Z,3.01
2022-10-12T01:31:38.039Z,3.36
2022-10-12T01:34:16.759Z,3.35
2022-10-12T01:36:48.825Z,3.20
2022-10-12T01:39:24.776Z,3.03
2022-10-12T01:41:56.853Z,2.96
2022-10-12T01:44:25.292Z,2.85
2022-10-12T01:46:54.049Z,2.79
2022-10-12T01:49:30.607Z,2.86
2022-10-12T01:52:21.271Z,2.92
2022-10-12T01:55:02.602Z,2.90
2022-10-12T01:57:49.904Z,2.70
2022-10-12T02:00:17.365Z,2.71
2022-10-12T02:02:46.795Z,2.88
2022-10-12T02:05:19.153Z,3.21
2022-10-12T02:07:54.125Z,3.08
2022-10-12T02:10:46.352Z,3.05
2022-10-12T02:13:15.201Z,2.72
2022-10-12T02:15:43.375Z,2.61
2022-10-12T02:18:14.519Z,2.58
2022-10-12T02:20:42.343Z,2.70
2022-10-12T02:23:10.422Z,2.54
2022-10-12T02:25:36.966Z,2.62
2022-10-12T02:28:13.737Z,2.60
2022-10-12T02:31:01.787Z,2.62
2022-10-12T02:33:56.827Z,2.52
2022-10-12T02:36:35.429Z,2.53
2022-10-12T02:39:09.380Z,2.57
2022-10-12T02:41:46.467Z,2.56
2022-10-12T02:44:20.309Z,2.55
2022-10-12T02:46:49.567Z,2.57
2022-10-12T02:49:17.734Z,2.50
2022-10-12T02:51:45.357Z,2.54
2022-10-12T02:54:12.686Z,2.54
2022-10-12T02:56:45.303Z,2.35
2022-10-12T02:59:13.779Z,2.45
2022-10-12T03:01:41.501Z,2.29
2022-10-12T03:04:08.842Z,2.66
2022-10-12T03:06:35.330Z,2.71
2022-10-12T03:09:02.043Z,2.84
2022-10-12T03:11:28.650Z,2.66
2022-10-12T03:13:55.827Z,2.43
2022-10-12T03:16:23.275Z,2.52
2022-10-12T03:18:50.105Z,2.73
2022-10-12T03:21:17.047Z,3.01
2022-10-12T03:23:43.495Z,2.86
2022-10-12T03:26:09.942Z,2.71
2022-10-12T03:28:36.507Z,2.46
2022-10-12T03:31:03.700Z,2.55
2022-10-12T03:33:30.165Z,2.70
2022-10-12T03:35:56.705Z,2.44
2022-10-12T03:38:23.156Z,2.33
2022-10-12T03:40:49.605Z,2.27
2022-10-12T03:43:17.159Z,2.27
2022-10-12T03:45:43.620Z,2.30
2022-10-12T03:48:10.115Z,2.21
2022-10-12T03:50:36.761Z,2.03
2022-10-12T03:53:05.093Z,2.52
2022-10-12T03:55:32.208Z,2.55
2022-10-12T03:57:58.748Z,2.50
2022-10-12T04:00:25.962Z,2.40
2022-10-12T04:02:52.518Z,2.50
2022-10-12T04:05:18.942Z,2.57
2022-10-12T04:07:45.524Z,2.30
2022-10-12T04:10:12.180Z,2.23
2022-10-12T04:12:38.657Z,2.31
2022-10-12T04:15:05.692Z,2.23
2022-10-12T04:17:32.186Z,2.21
2022-10-12T04:19:58.630Z,2.35
2022-10-12T04:22:25.186Z,2.37
2022-10-12T04:24:51.766Z,2.38
2022-10-12T04:27:18.267Z,2.67
2022-10-12T04:29:44.876Z,2.66
2022-10-12T04:32:12.635Z,2.76
2022-10-12T04:34:39.345Z,2.43
2022-10-12T04:37:05.891Z,2.81
2022-10-12T04:39:32.393Z,2.53
2022-10-12T04:41:58.858Z,2.81
2022-10-12T04:44:29.708Z,2.64
2022-10-12T04:46:58.663Z,2.29
2022-10-12T04:49:25.133Z,2.16
2022-10-12T04:51:51.567Z,2.22
2022-10-12T04:54:18.072Z,2.19
2022-10-12T04:56:47.938Z,2.37
2022-10-12T04:59:15.210Z,2.31
2022-10-12T05:01:41.986Z,2.40
2022-10-12T05:04:08.579Z,2.43
2022-10-12T05:06:35.039Z,2.52
2022-10-12T05:09:01.629Z,2.59
2022-10-12T05:11:28.094Z,2.67
2022-10-12T05:13:54.562Z,3.09
2022-10-12T05:16:21.296Z,3.19
2022-10-12T05:18:47.911Z,3.25
2022-10-12T05:21:14.508Z,2.92
2022-10-12T05:23:40.961Z,3.19
2022-10-12T05:27:10.813Z,3.43
2022-10-12T05:29:37.244Z,3.34
2022-10-12T05:32:03.845Z,3.11
2022-10-12T05:34:30.234Z,3.22
2022-10-12T05:36:58.157Z,3.16
2022-10-12T05:39:24.824Z,3.53
2022-10-12T05:41:54.134Z,3.51
2022-10-12T05:44:20.846Z,3.42
2022-10-12T05:46:47.229Z,3.36
2022-10-12T05:49:13.673Z,3.75
2022-10-12T05:51:40.684Z,3.51
2022-10-12T05:54:07.196Z,3.43
2022-10-12T05:56:33.572Z,3.61
2022-10-12T05:59:00.009Z,3.71
2022-10-12T06:01:26.461Z,3.59
2022-10-12T06:03:54.685Z,3.48
2022-10-12T06:06:21.924Z,3.68
2022-10-12T06:08:48.485Z,3.86
2022-10-12T06:11:14.980Z,3.94
2022-10-12T06:13:41.397Z,3.67
2022-10-12T06:16:07.862Z,4.01
2022-10-12T06:18:34.351Z,4.04
2022-10-12T06:23:47.236Z,3.89
2022-10-12T06:26:13.789Z,3.95
2022-10-12T06:28:40.238Z,3.93
2022-10-12T06:31:06.782Z,4.02
2022-10-12T06:33:33.218Z,3.78
2022-10-12T06:35:59.604Z,3.66
2022-10-12T06:38:26.103Z,3.70
2022-10-12T06:40:53.525Z,3.74
2022-10-12T06:43:22.619Z,4.01
2022-10-12T06:45:49.695Z,4.15
2022-10-12T06:48:18.671Z,4.12
2022-10-12T06:50:47.101Z,4.34
2022-10-12T06:53:13.547Z,4.83
2022-10-12T06:55:40.364Z,5.07
2022-10-12T06:58:06.772Z,5.12
2022-10-12T07:00:33.204Z,5.21
2022-10-12T07:02:59.655Z,5.20
2022-10-12T07:05:26.136Z,5.32
2022-10-12T07:07:52.624Z,5.29
2022-10-12T07:10:19.221Z,5.50
2022-10-12T07:12:45.702Z,5.33
2022-10-12T07:15:12.305Z,5.29
2022-10-12T07:17:39.120Z,5.64
2022-10-12T07:20:06.189Z,5.57
2022-10-12T07:22:33.084Z,6.23
2022-10-12T07:24:59.630Z,6.31
2022-10-12T07:27:26.140Z,6.19
2022-10-12T07:29:52.646Z,6.13
2022-10-12T07:32:19.079Z,5.84
2022-10-12T07:34:45.611Z,5.84
2022-10-12T07:37:12.623Z,5.85
2022-10-12T07:39:41.412Z,5.63
2022-10-12T07:42:08.154Z,5.81
2022-10-12T07:44:34.756Z,6.02
2022-10-12T07:47:01.439Z,5.92
2022-10-12T07:49:27.976Z,6.04
2022-10-12T07:51:54.420Z,6.36
2022-10-12T07:54:25.611Z,6.49
2022-10-12T07:56:55.621Z,7.18
2022-10-12T07:59:22.293Z,7.39
2022-10-12T08:01:48.845Z,7.40
2022-10-12T08:04:15.401Z,7.44
2022-10-12T08:06:43.805Z,7.58
2022-10-12T08:09:10.315Z,7.63
2022-10-12T08:11:41.044Z,8.28
2022-10-12T08:14:13.736Z,8.19
2022-10-12T08:16:42.155Z,8.36
2022-10-12T08:19:08.742Z,8.96
2022-10-12T08:21:35.339Z,9.02
2022-10-12T08:24:01.830Z,9.26
2022-10-12T08:26:29.189Z,9.30
2022-10-12T08:28:56.952Z,9.35
2022-10-12T08:31:23.604Z,9.42
2022-10-12T08:33:50.218Z,10.04
2022-10-12T08:36:16.826Z,10.56
2022-10-12T08:38:43.848Z,10.55
2022-10-12T08:41:22.723Z,10.39
2022-10-12T08:43:58.269Z,10.15
2022-10-12T08:46:26.756Z,10.85
2022-10-12T08:49:13.086Z,10.90
2022-10-12T08:51:51.968Z,11.45
2022-10-12T08:54:27.176Z,11.97
2022-10-12T08:56:54.907Z,12.05
2022-10-12T08:59:23.245Z,11.88
2022-10-12T09:02:29.675Z,12.23
2022-10-12T09:05:18.335Z,11.90
2022-10-12T09:08:10.996Z,11.37
2022-10-12T09:10:59.601Z,11.18
2022-10-12T09:13:42.935Z,11.45
2022-10-12T09:16:25.325Z,11.63
2022-10-12T09:18:58.743Z,11.41
2022-10-12T09:21:33.393Z,11.35
2022-10-12T09:24:25.130Z,11.60
2022-10-12T09:27:13.625Z,11.81
2022-10-12T09:29:47.326Z,12.04
2022-10-12T09:32:36.528Z,12.24
2022-10-12T09:35:06.405Z,12.12
2022-10-12T09:37:35.504Z,12.33
2022-10-12T09:40:05.026Z,12.69
2022-10-12T09:42:34.057Z,12.32
2022-10-12T09:45:21.558Z,12.27
2022-10-12T09:48:47.871Z,12.73
2022-10-12T09:51:16.578Z,13.30
2022-10-12T09:54:05.403Z,13.56
2022-10-12T09:57:07.534Z,13.44
2022-10-12T09:59:42.808Z,13.24
2022-10-12T10:02:23.013Z,13.11
2022-10-12T10:04:54.580Z,13.18
2022-10-12T10:07:35.797Z,12.99
2022-10-12T10:10:32.000Z,13.84
2022-10-12T10:13:06.304Z,14.58
2022-10-12T10:15:39.271Z,14.88
2022-10-12T10:18:23.810Z,15.76
2022-10-12T10:21:17.662Z,15.16
2022-10-12T10:24:00.996Z,14.36
2022-10-12T10:26:56.723Z,14.47
2022-10-12T10:29:28.531Z,14.61
2022-10-12T10:32:12.873Z,15.04
2022-10-12T10:34:41.848Z,15.26
2022-10-12T10:37:19.665Z,15.75
2022-10-12T10:39:49.769Z,15.90
2022-10-12T10:42:20.591Z,16.53
2022-10-12T10:44:58.542Z,16.76
2022-10-12T10:47:25.411Z,17.09
2022-10-12T10:49:57.229Z,16.90
2022-10-12T10:52:33.274Z,16.24
2022-10-12T10:55:19.115Z,16.58
2022-10-12T10:58:03.501Z,16.65
2022-10-12T11:00:39.139Z,16.68
2022-10-12T11:03:52.343Z,16.83
2022-10-12T11:06:24.934Z,16.36
2022-10-12T11:09:00.356Z,15.98
2022-10-12T11:11:31.228Z,15.61
2022-10-12T11:14:42.734Z,15.96
2022-10-12T11:17:31.256Z,15.38
2022-10-12T11:20:20.055Z,15.24
2022-10-12T11:23:10.530Z,15.55
2022-10-12T11:25:49.305Z,15.72
2022-10-12T11:28:16.498Z,15.83
2022-10-12T11:30:50.501Z,15.59
2022-10-12T11:33:27.685Z,15.56
2022-10-12T11:35:55.313Z,15.42
2022-10-12T11:38:37.742Z,15.66
2022-10-12T11:41:34.500Z,15.39
2022-10-12T11:44:03.850Z,15.24
2022-10-12T11:46:48.924Z,15.26
2022-10-12T11:49:37.139Z,15.45
2022-10-12T11:52:09.948Z,15.56
2022-10-12T11:55:06.429Z,15.54
2022-10-12T11:57:37.897Z,15.29
2022-10-12T12:00:19.426Z,15.26
2022-10-12T12:02:54.446Z,15.25
2022-10-12T12:05:21.255Z,15.30
2022-10-12T12:07:59.309Z,15.29
2022-10-12T12:10:31.117Z,15.63
2022-10-12T12:13:23.033Z,15.70
2022-10-12T12:15:52.596Z,15.61
2022-10-12T12:18:22.090Z,16.27
2022-10-12T12:20:48.579Z,16.09
2022-10-12T12:23:54.460Z,16.73
2022-10-12T12:26:26.932Z,17.71
2022-10-12T12:29:26.542Z,16.98
2022-10-12T12:32:01.661Z,16.27
2022-10-12T12:34:28.760Z,16.33
2022-10-12T12:36:55.335Z,16.56
2022-10-12T12:39:26.229Z,16.31
2022-10-12T12:42:01.679Z,15.93
2022-10-12T12:44:37.991Z,15.49
2022-10-12T12:47:26.144Z,15.89
2022-10-12T12:50:00.959Z,15.73
2022-10-12T12:52:34.686Z,15.66
2022-10-12T12:55:16.434Z,15.62
2022-10-12T12:58:20.676Z,15.61
2022-10-12T13:01:09.016Z,15.13
2022-10-12T13:04:09.760Z,15.13
2022-10-12T13:07:06.431Z,15.06
2022-10-12T13:09:47.183Z,14.92
2022-10-12T13:12:28.905Z,15.18
2022-10-12T13:15:18.582Z,15.19
2022-10-12T13:18:18.687Z,15.04
2022-10-12T13:20:57.519Z,15.13
2022-10-12T13:23:27.087Z,15.63
2022-10-12T13:25:59.025Z,15.49
2022-10-12T13:28:29.810Z,15.52
2022-10-12T13:31:04.455Z,15.57
2022-10-12T13:33:40.697Z,15.67
2022-10-12T13:36:23.629Z,15.73
2022-10-12T13:38:56.061Z,15.56
2022-10-12T13:41:25.500Z,15.32
2022-10-12T13:43:58.353Z,15.34
2022-10-12T13:46:44.627Z,15.05
2022-10-12T13:49:29.436Z,15.16
2022-10-12T13:52:15.825Z,15.05
2022-10-12T13:54:47.399Z,15.01
2022-10-12T13:57:19.859Z,14.95
2022-10-12T13:59:49.884Z,14.95
2022-10-12T14:02:21.551Z,14.88
2022-10-12T14:04:48.049Z,14.91
2022-10-12T14:07:32.125Z,15.00
2022-10-12T14:10:05.909Z,14.78
2022-10-12T14:12:34.946Z,14.90
2022-10-12T14:15:02.674Z,14.80
2022-10-12T14:17:30.217Z,14.75
2022-10-12T14:20:13.770Z,14.98
2022-10-12T14:22:47.238Z,15.12
2022-10-12T14:25:20.338Z,15.09
2022-10-12T14:27:57.600Z,14.90
2022-10-12T14:30:28.741Z,14.97
2022-10-12T14:33:17.026Z,14.80
2022-10-12T14:35:46.620Z,14.65
2022-10-12T14:38:38.325Z,14.56
2022-10-12T14:41:29.777Z,14.51
2022-10-12T14:44:17.632Z,14.49
2022-10-12T14:46:52.410Z,14.06
2022-10-12T14:49:22.492Z,14.24
2022-10-12T14:51:50.493Z,14.27
2022-10-12T14:54:16.925Z,13.95
2022-10-12T14:56:43.393Z,14.10
2022-10-12T14:59:09.922Z,14.17
2022-10-12T15:01:40.945Z,14.03
2022-10-12T15:04:12.745Z,14.18
2022-10-12T15:06:39.754Z,14.15
2022-10-12T15:09:06.299Z,14.19
2022-10-12T15:11:32.873Z,14.05
2022-10-12T15:13:59.418Z,13.96
2022-10-12T15:16:28.608Z,14.13
2022-10-12T15:18:55.062Z,14.11
2022-10-12T15:21:21.529Z,13.98
2022-10-12T15:23:48.025Z,13.91
2022-10-12T15:26:17.608Z,13.93
2022-10-12T15:28:45.114Z,13.77
2022-10-12T15:31:18.561Z,13.52
2022-10-12T15:33:45.770Z,13.46
2022-10-12T15:36:12.269Z,13.52
2022-10-12T15:38:39.088Z,13.58
2022-10-12T15:41:05.865Z,13.26
2022-10-12T15:43:33.764Z,13.04
2022-10-12T15:46:02.217Z,12.81
2022-10-12T15:48:29.000Z,12.85
2022-10-12T15:50:55.691Z,12.61
2022-10-12T15:53:24.713Z,12.55
2022-10-12T15:55:55.681Z,12.33
2022-10-12T15:58:22.400Z,12.11
2022-10-12T16:00:49.530Z,12.20
2022-10-12T16:03:24.585Z,12.38
2022-10-12T16:05:51.913Z,12.40
2022-10-12T16:08:18.412Z,12.13
2022-10-12T16:10:46.085Z,11.98
2022-10-12T16:13:13.882Z,12.12
2022-10-12T16:15:41.771Z,11.89
2022-10-12T16:18:08.928Z,11.66
2022-10-12T16:20:37.485Z,11.47
2022-10-12T16:23:07.736Z,11.36
2022-10-12T16:25:35.015Z,11.56
2022-10-12T16:28:01.487Z,11.57
2022-10-12T16:30:27.988Z,11.28
2022-10-12T16:32:54.575Z,11.40
2022-10-12T16:35:21.475Z,11.40
2022-10-12T16:37:48.320Z,11.49
2022-10-12T16:40:15.762Z,11.25
2022-10-12T16:42:42.781Z,11.11
2022-10-12T16:45:09.677Z,11.13
2022-10-12T16:47:41.923Z,10.73
2022-10-12T16:50:10.073Z,10.65
2022-10-12T16:52:36.582Z,10.85
2022-10-12T16:55:03.247Z,10.86
2022-10-12T16:57:29.700Z,10.50
2022-10-12T16:59:56.337Z,10.40
2022-10-12T17:02:22.813Z,10.51
2022-10-12T17:04:49.305Z,10.62
2022-10-12T17:07:16.313Z,10.46
2022-10-12T17:09:42.892Z,10.19
2022-10-12T17:12:09.710Z,10.02
2022-10-12T17:14:36.237Z,10.18
2022-10-12T17:17:02.949Z,9.99
2022-10-12T17:19:32.343Z,9.92
2022-10-12T17:22:01.103Z,9.86
2022-10-12T17:24:29.679Z,9.93
2022-10-12T17:26:57.521Z,9.56
2022-10-12T17:29:26.304Z,9.57
2022-10-12T17:31:54.896Z,9.66
2022-10-12T17:34:24.282Z,9.52
2022-10-12T17:36:52.273Z,9.66
2022-10-12T17:39:19.089Z,9.64
2022-10-12T17:41:45.785Z,9.52
2022-10-12T17:44:12.326Z,9.19
2022-10-12T17:46:39.903Z,9.21
2022-10-12T17:49:07.878Z,9.24
2022-10-12T17:51:34.403Z,8.95
2022-10-12T17:54:01.320Z,9.07
2022-10-12T17:56:28.017Z,8.80
2022-10-12T17:59:01.007Z,8.86
2022-10-12T18:01:30.052Z,8.77
2022-10-12T18:04:00.329Z,8.63
2022-10-12T18:06:27.056Z,8.83
2022-10-12T18:08:53.638Z,8.78
2022-10-12T18:11:21.281Z,8.63
2022-10-12T18:13:49.923Z,8.50
2022-10-12T18:16:18.752Z,8.41
2022-10-12T18:18:45.460Z,8.43
2022-10-12T18:21:14.058Z,8.48
2022-10-12T18:23:41.011Z,8.39
2022-10-12T18:26:09.892Z,8.64
2022-10-12T18:28:37.525Z,8.75
2022-10-12T18:31:04.820Z,8.77
2022-10-12T18:33:31.889Z,8.46
2022-10-12T18:36:06.256Z,8.37
2022-10-12T18:38:33.918Z,8.29
2022-10-12T18:41:08.427Z,8.14
2022-10-12T18:43:35.056Z,8.04
2022-10-12T18:46:09.548Z,8.21
2022-10-12T18:48:36.299Z,8.51
2022-10-12T18:51:07.992Z,8.39
2022-10-12T18:53:35.309Z,8.32
2022-10-12T18:56:04.022Z,8.22
2022-10-12T18:58:31.300Z,8.14
2022-10-12T19:00:58.163Z,8.14
2022-10-12T19:03:25.656Z,8.23
2022-10-12T19:05:52.525Z,8.04
2022-10-12T19:08:19.172Z,8.12
2022-10-12T19:10:45.711Z,8.19
2022-10-12T19:13:12.283Z,8.08
2022-10-12T19:15:38.972Z,8.09
2022-10-12T19:18:05.915Z,7.94
2022-10-12T19:20:35.606Z,8.00
2022-10-12T19:23:02.172Z,7.77
2022-10-12T19:25:28.641Z,7.64
2022-10-12T19:27:55.133Z,7.76
2022-10-12T19:30:21.638Z,7.77
2022-10-12T19:32:48.711Z,7.50
2022-10-12T19:35:15.333Z,7.24
2022-10-12T19:37:41.768Z,7.36
2022-10-12T19:40:12.360Z,7.41
2022-10-12T19:42:38.932Z,7.37
2022-10-12T19:45:05.813Z,7.60
2022-10-12T19:47:32.444Z,7.45
2022-10-12T19:49:58.896Z,7.44
2022-10-12T19:52:25.419Z,7.56
2022-10-12T19:54:51.991Z,7.57
2022-10-12T19:57:18.480Z,7.55
2022-10-12T19:59:44.980Z,7.57
2022-10-12T20:02:11.805Z,7.32
2022-10-12T20:04:38.343Z,7.31
2022-10-12T20:07:04.820Z,7.73
2022-10-12T20:09:31.364Z,7.78
2022-10-12T20:11:57.857Z,7.57
2022-10-12T20:14:25.639Z,7.53
2022-10-12T20:16:52.372Z,7.75
2022-10-12T20:19:18.895Z,8.07
2022-10-12T20:21:45.381Z,8.04
2022-10-12T20:24:11.881Z,7.65
2022-10-12T20:26:40.917Z,7.38
2022-10-12T20:29:07.478Z,7.36
2022-10-12T20:31:34.013Z,7.64
2022-10-12T20:34:00.533Z,7.54
2022-10-12T20:36:29.991Z,7.33
2022-10-12T20:38:58.105Z,7.29
2022-10-12T20:41:25.651Z,7.09
2022-10-12T20:44:00.188Z,7.18
2022-10-12T20:46:28.606Z,7.35
2022-10-12T20:48:58.821Z,7.15
2022-10-12T20:51:28.802Z,6.87
2022-10-12T20:53:58.825Z,6.68
2022-10-12T20:56:30.988Z,6.76
2022-10-12T20:58:58.399Z,6.63
2022-10-12T21:01:28.484Z,6.53
2022-10-12T21:03:55.302Z,6.84
2022-10-12T21:06:23.469Z,6.78
2022-10-12T21:08:51.642Z,6.69
2022-10-12T21:11:18.427Z,6.66
2022-10-12T21:13:46.053Z,6.96
2022-10-12T21:16:13.910Z,6.92
2022-10-12T21:18:40.923Z,6.93
2022-10-12T21:21:12.204Z,7.10
2022-10-12T21:23:44.183Z,7.01
2022-10-12T21:26:13.057Z,6.97
2022-10-12T21:28:39.762Z,7.22
2022-10-12T21:31:07.267Z,7.22
2022-10-12T21:33:37.313Z,7.29
2022-10-12T21:36:16.582Z,7.34
2022-10-12T21:38:43.476Z,7.36
2022-10-12T21:41:11.750Z,7.18
2022-10-12T21:43:39.150Z,7.09
2022-10-12T21:46:08.935Z,7.15
2022-10-12T21:48:36.085Z,7.21
2022-10-12T21:51:03.559Z,7.27
2022-10-12T21:53:30.892Z,7.29
2022-10-12T21:55:57.877Z,7.31
2022-10-12T21:58:24.428Z,7.32
2022-10-12T22:00:51.039Z,7.40
2022-10-12T22:03:17.779Z,7.28
2022-10-12T22:05:44.664Z,7.34
2022-10-12T22:08:11.405Z,7.38
2022-10-12T22:10:39.266Z,7.40
2022-10-12T22:13:07.058Z,7.54
2022-10-12T22:15:34.955Z,7.60
2022-10-12T22:18:09.794Z,7.25
2022-10-12T22:20:37.395Z,7.30
2022-10-12T22:23:04.482Z,7.39
2022-10-12T22:25:30.976Z,7.42
2022-10-12T22:28:00.427Z,7.40
2022-10-12T22:30:29.024Z,7.49
2022-10-12T22:32:55.486Z,7.53
2022-10-12T22:35:22.122Z,7.59
2022-10-12T22:37:48.806Z,7.57
2022-10-12T22:40:15.408Z,7.52
2022-10-12T22:42:41.968Z,7.64
2022-10-12T22:45:09.150Z,7.68
2022-10-12T22:47:35.637Z,7.60
2022-10-12T22:50:02.948Z,7.53
2022-10-12T22:52:29.424Z,7.61
2022-10-12T22:54:55.912Z,7.94
2022-10-12T22:57:22.429Z,7.82
2022-10-12T22:59:50.201Z,7.55
2022-10-12T23:02:17.024Z,7.91
2022-10-12T23:04:43.873Z,8.21
2022-10-12T23:07:10.400Z,8.16
2022-10-12T23:09:36.906Z,7.84
2022-10-12T23:12:03.541Z,7.42
2022-10-12T23:14:30.480Z,7.64
2022-10-12T23:16:56.925Z,7.87
2022-10-12T23:19:26.309Z,7.93
2022-10-12T23:21:52.747Z,7.88
2022-10-12T23:24:19.313Z,7.84
2022-10-12T23:26:45.815Z,7.57
2022-10-12T23:29:12.352Z,7.36
2022-10-12T23:31:38.931Z,7.40
2022-10-12T23:34:06.410Z,7.44
2022-10-12T23:36:34.222Z,7.47
2022-10-12T23:39:02.315Z,7.33
2022-10-12T23:41:28.898Z,7.22
2022-10-12T23:43:55.408Z,7.22
2022-10-12T23:46:21.900Z,7.60
2022-10-12T23:48:48.342Z,7.70
2022-10-12T23:51:14.850Z,7.33
2022-10-12T23:53:42.559Z,7.36
2022-10-12T23:56:09.825Z,7.29
2022-10-12T23:58:36.634Z,7.24
